sensor_id;sensor_type;location;lat;lon;timestamp;P1;durP1;ratioP1;P2;durP2;ratioP2
59824;SDS011;45703;50.898;6.054;2022-08-05T00:01:36;9.10;;;4.25;;
59824;SDS011;45703;50.898;6.054;2022-08-05T00:04:01;9.10;;;4.05;;
59824;SDS011;45703;50.898;6.054;2022-08-05T00:06:26;8.65;;;4.10;;
59824;SDS011;45703;50.898;6.054;2022-08-05T00:08:52;9.10;;;4.20;;
59824;SDS011;45703;50.898;6.054;2022-08-05T00:11:17;9.90;;;4.00;;
59824;SDS011;45703;50.898;6.054;2022-08-05T00:13:43;9.73;;;4.40;;
59824;SDS011;45703;50.898;6.054;2022-08-05T00:16:09;10.35;;;4.45;;
59824;SDS011;45703;50.898;6.054;2022-08-05T00:18:36;9.38;;;4.25;;
59824;SDS011;45703;50.898;6.054;2022-08-05T00:21:03;9.07;;;4.43;;
59824;SDS011;45703;50.898;6.054;2022-08-05T00:23:30;9.20;;;4.60;;
59824;SDS011;45703;50.898;6.054;2022-08-05T00:25:55;8.45;;;4.22;;
59824;SDS011;45703;50.898;6.054;2022-08-05T00:28:20;10.52;;;4.70;;
59824;SDS011;45703;50.898;6.054;2022-08-05T00:30:46;8.80;;;4.22;;
59824;SDS011;45703;50.898;6.054;2022-08-05T00:33:11;8.45;;;4.38;;
59824;SDS011;45703;50.898;6.054;2022-08-05T00:35:37;10.07;;;5.25;;
59824;SDS011;45703;50.898;6.054;2022-08-05T00:38:02;9.73;;;4.80;;
59824;SDS011;45703;50.898;6.054;2022-08-05T00:40:27;9.75;;;5.40;;
59824;SDS011;45703;50.898;6.054;2022-08-05T00:42:53;11.25;;;5.55;;
59824;SDS011;45703;50.898;6.054;2022-08-05T00:45:19;9.80;;;4.95;;
59824;SDS011;45703;50.898;6.054;2022-08-05T00:47:45;10.80;;;4.78;;
59824;SDS011;45703;50.898;6.054;2022-08-05T00:50:10;9.30;;;4.75;;
59824;SDS011;45703;50.898;6.054;2022-08-05T00:52:36;10.13;;;5.22;;
59824;SDS011;45703;50.898;6.054;2022-08-05T00:55:01;9.30;;;5.22;;
59824;SDS011;45703;50.898;6.054;2022-08-05T00:57:28;9.85;;;5.88;;
59824;SDS011;45703;50.898;6.054;2022-08-05T00:59:53;9.45;;;5.75;;
59824;SDS011;45703;50.898;6.054;2022-08-05T01:02:18;12.10;;;5.47;;
59824;SDS011;45703;50.898;6.054;2022-08-05T01:04:44;12.35;;;6.72;;
59824;SDS011;45703;50.898;6.054;2022-08-05T01:07:09;10.32;;;6.38;;
59824;SDS011;45703;50.898;6.054;2022-08-05T01:09:35;11.52;;;6.43;;
59824;SDS011;45703;50.898;6.054;2022-08-05T01:12:10;10.98;;;6.75;;
59824;SDS011;45703;50.898;6.054;2022-08-05T01:14:49;11.65;;;5.90;;
59824;SDS011;45703;50.898;6.054;2022-08-05T01:31:32;11.52;;;8.15;;
59824;SDS011;45703;50.898;6.054;2022-08-05T01:34:21;14.43;;;8.80;;
59824;SDS011;45703;50.898;6.054;2022-08-05T01:36:50;13.55;;;8.40;;
59824;SDS011;45703;50.898;6.054;2022-08-05T01:41:45;13.43;;;7.18;;
59824;SDS011;45703;50.898;6.054;2022-08-05T01:44:13;12.65;;;8.23;;
59824;SDS011;45703;50.898;6.054;2022-08-05T01:46:39;11.65;;;7.63;;
59824;SDS011;45703;50.898;6.054;2022-08-05T01:49:06;14.32;;;7.65;;
59824;SDS011;45703;50.898;6.054;2022-08-05T01:51:34;12.95;;;7.88;;
59824;SDS011;45703;50.898;6.054;2022-08-05T01:54:02;10.98;;;7.00;;
59824;SDS011;45703;50.898;6.054;2022-08-05T01:56:30;11.80;;;7.13;;
59824;SDS011;45703;50.898;6.054;2022-08-05T01:58:59;11.32;;;6.78;;
59824;SDS011;45703;50.898;6.054;2022-08-05T02:01:28;10.17;;;6.67;;
59824;SDS011;45703;50.898;6.054;2022-08-05T02:03:55;10.40;;;6.43;;
59824;SDS011;45703;50.898;6.054;2022-08-05T02:06:21;10.70;;;6.50;;
59824;SDS011;45703;50.898;6.054;2022-08-05T02:08:46;9.35;;;5.82;;
59824;SDS011;45703;50.898;6.054;2022-08-05T02:11:14;11.48;;;6.30;;
59824;SDS011;45703;50.898;6.054;2022-08-05T02:16:26;10.27;;;5.40;;
59824;SDS011;45703;50.898;6.054;2022-08-05T02:18:57;9.43;;;5.45;;
59824;SDS011;45703;50.898;6.054;2022-08-05T02:21:30;10.07;;;5.38;;
59824;SDS011;45703;50.898;6.054;2022-08-05T02:24:01;8.95;;;4.85;;
59824;SDS011;45703;50.898;6.054;2022-08-05T02:26:46;9.63;;;5.40;;
59824;SDS011;45703;50.898;6.054;2022-08-05T02:29:15;10.13;;;5.53;;
59824;SDS011;45703;50.898;6.054;2022-08-05T02:31:46;9.65;;;5.05;;
59824;SDS011;45703;50.898;6.054;2022-08-05T02:34:14;9.15;;;5.03;;
59824;SDS011;45703;50.898;6.054;2022-08-05T02:36:43;9.55;;;4.97;;
59824;SDS011;45703;50.898;6.054;2022-08-05T02:39:13;9.35;;;4.80;;
59824;SDS011;45703;50.898;6.054;2022-08-05T02:41:42;9.15;;;5.03;;
59824;SDS011;45703;50.898;6.054;2022-08-05T02:44:11;9.65;;;6.10;;
59824;SDS011;45703;50.898;6.054;2022-08-05T02:46:38;9.93;;;6.40;;
59824;SDS011;45703;50.898;6.054;2022-08-05T02:49:08;9.40;;;5.97;;
59824;SDS011;45703;50.898;6.054;2022-08-05T02:51:36;8.88;;;5.43;;
59824;SDS011;45703;50.898;6.054;2022-08-05T02:54:01;8.50;;;5.47;;
59824;SDS011;45703;50.898;6.054;2022-08-05T02:56:28;9.32;;;5.70;;
59824;SDS011;45703;50.898;6.054;2022-08-05T02:58:54;10.07;;;6.22;;
59824;SDS011;45703;50.898;6.054;2022-08-05T03:01:22;10.07;;;5.45;;
59824;SDS011;45703;50.898;6.054;2022-08-05T03:03:49;10.23;;;6.45;;
59824;SDS011;45703;50.898;6.054;2022-08-05T03:06:18;10.73;;;6.28;;
59824;SDS011;45703;50.898;6.054;2022-08-05T03:08:45;10.73;;;5.72;;
59824;SDS011;45703;50.898;6.054;2022-08-05T03:11:17;9.57;;;5.65;;
59824;SDS011;45703;50.898;6.054;2022-08-05T03:13:50;9.45;;;5.75;;
59824;SDS011;45703;50.898;6.054;2022-08-05T03:16:16;10.68;;;5.97;;
59824;SDS011;45703;50.898;6.054;2022-08-05T03:18:42;9.80;;;6.40;;
59824;SDS011;45703;50.898;6.054;2022-08-05T03:21:08;10.43;;;6.20;;
59824;SDS011;45703;50.898;6.054;2022-08-05T03:23:34;12.90;;;6.47;;
59824;SDS011;45703;50.898;6.054;2022-08-05T03:26:01;9.75;;;6.07;;
59824;SDS011;45703;50.898;6.054;2022-08-05T03:28:27;9.75;;;6.28;;
59824;SDS011;45703;50.898;6.054;2022-08-05T03:30:53;11.98;;;6.32;;
59824;SDS011;45703;50.898;6.054;2022-08-05T03:33:20;10.23;;;6.10;;
59824;SDS011;45703;50.898;6.054;2022-08-05T03:35:46;9.82;;;5.97;;
59824;SDS011;45703;50.898;6.054;2022-08-05T03:38:13;10.48;;;5.88;;
59824;SDS011;45703;50.898;6.054;2022-08-05T03:40:42;9.93;;;5.68;;
59824;SDS011;45703;50.898;6.054;2022-08-05T03:43:08;9.63;;;6.43;;
59824;SDS011;45703;50.898;6.054;2022-08-05T03:45:33;12.63;;;7.57;;
59824;SDS011;45703;50.898;6.054;2022-08-05T03:47:59;14.35;;;10.20;;
59824;SDS011;45703;50.898;6.054;2022-08-05T03:50:27;16.17;;;10.23;;
59824;SDS011;45703;50.898;6.054;2022-08-05T03:53:05;17.10;;;10.93;;
59824;SDS011;45703;50.898;6.054;2022-08-05T03:55:36;17.40;;;11.13;;
59824;SDS011;45703;50.898;6.054;2022-08-05T03:58:08;19.23;;;12.38;;
59824;SDS011;45703;50.898;6.054;2022-08-05T04:00:37;17.52;;;10.68;;
59824;SDS011;45703;50.898;6.054;2022-08-05T04:03:05;16.08;;;10.05;;
59824;SDS011;45703;50.898;6.054;2022-08-05T04:05:32;16.45;;;10.45;;
59824;SDS011;45703;50.898;6.054;2022-08-05T04:07:59;17.27;;;10.43;;
59824;SDS011;45703;50.898;6.054;2022-08-05T04:10:27;17.58;;;11.30;;
59824;SDS011;45703;50.898;6.054;2022-08-05T04:12:53;18.45;;;11.98;;
59824;SDS011;45703;50.898;6.054;2022-08-05T04:15:18;19.77;;;12.77;;
59824;SDS011;45703;50.898;6.054;2022-08-05T04:17:44;20.05;;;11.60;;
59824;SDS011;45703;50.898;6.054;2022-08-05T04:20:22;18.65;;;12.02;;
59824;SDS011;45703;50.898;6.054;2022-08-05T04:22:48;19.90;;;11.88;;
59824;SDS011;45703;50.898;6.054;2022-08-05T04:25:14;17.27;;;11.23;;
59824;SDS011;45703;50.898;6.054;2022-08-05T04:27:39;21.63;;;13.30;;
59824;SDS011;45703;50.898;6.054;2022-08-05T04:30:05;20.25;;;13.27;;
59824;SDS011;45703;50.898;6.054;2022-08-05T04:32:33;20.25;;;12.23;;
59824;SDS011;45703;50.898;6.054;2022-08-05T04:34:58;19.70;;;11.98;;
59824;SDS011;45703;50.898;6.054;2022-08-05T04:37:24;22.15;;;13.75;;
59824;SDS011;45703;50.898;6.054;2022-08-05T04:39:49;21.13;;;12.88;;
59824;SDS011;45703;50.898;6.054;2022-08-05T04:42:14;21.70;;;13.13;;
59824;SDS011;45703;50.898;6.054;2022-08-05T04:44:40;23.42;;;14.25;;
59824;SDS011;45703;50.898;6.054;2022-08-05T04:47:05;20.60;;;13.30;;
59824;SDS011;45703;50.898;6.054;2022-08-05T04:49:31;19.60;;;13.90;;
59824;SDS011;45703;50.898;6.054;2022-08-05T04:51:56;19.63;;;12.75;;
59824;SDS011;45703;50.898;6.054;2022-08-05T04:54:21;21.60;;;14.27;;
59824;SDS011;45703;50.898;6.054;2022-08-05T04:56:50;22.13;;;13.43;;
59824;SDS011;45703;50.898;6.054;2022-08-05T04:59:16;20.55;;;12.82;;
59824;SDS011;45703;50.898;6.054;2022-08-05T05:01:41;21.63;;;13.52;;
59824;SDS011;45703;50.898;6.054;2022-08-05T05:04:07;21.75;;;13.82;;
59824;SDS011;45703;50.898;6.054;2022-08-05T05:06:32;20.52;;;13.52;;
59824;SDS011;45703;50.898;6.054;2022-08-05T05:08:57;21.48;;;13.70;;
59824;SDS011;45703;50.898;6.054;2022-08-05T05:11:23;21.95;;;13.90;;
59824;SDS011;45703;50.898;6.054;2022-08-05T05:13:48;21.05;;;12.38;;
59824;SDS011;45703;50.898;6.054;2022-08-05T05:16:13;20.20;;;12.95;;
59824;SDS011;45703;50.898;6.054;2022-08-05T05:18:40;22.88;;;14.10;;
59824;SDS011;45703;50.898;6.054;2022-08-05T05:21:07;21.63;;;13.13;;
59824;SDS011;45703;50.898;6.054;2022-08-05T05:23:32;22.67;;;14.05;;
59824;SDS011;45703;50.898;6.054;2022-08-05T05:25:57;22.55;;;14.32;;
59824;SDS011;45703;50.898;6.054;2022-08-05T05:28:23;20.40;;;12.93;;
59824;SDS011;45703;50.898;6.054;2022-08-05T05:30:48;20.67;;;13.10;;
59824;SDS011;45703;50.898;6.054;2022-08-05T05:33:13;21.60;;;12.93;;
59824;SDS011;45703;50.898;6.054;2022-08-05T05:35:39;23.98;;;15.88;;
59824;SDS011;45703;50.898;6.054;2022-08-05T05:38:04;24.45;;;14.68;;
59824;SDS011;45703;50.898;6.054;2022-08-05T05:40:31;25.95;;;16.65;;
59824;SDS011;45703;50.898;6.054;2022-08-05T05:42:57;23.50;;;14.98;;
59824;SDS011;45703;50.898;6.054;2022-08-05T05:45:22;23.58;;;16.15;;
59824;SDS011;45703;50.898;6.054;2022-08-05T05:47:48;27.40;;;17.35;;
59824;SDS011;45703;50.898;6.054;2022-08-05T05:50:14;23.85;;;14.82;;
59824;SDS011;45703;50.898;6.054;2022-08-05T05:52:41;21.27;;;14.98;;
59824;SDS011;45703;50.898;6.054;2022-08-05T05:55:09;25.08;;;15.75;;
59824;SDS011;45703;50.898;6.054;2022-08-05T05:57:37;23.15;;;15.48;;
59824;SDS011;45703;50.898;6.054;2022-08-05T06:00:03;22.88;;;14.93;;
59824;SDS011;45703;50.898;6.054;2022-08-05T06:02:30;26.20;;;16.85;;
59824;SDS011;45703;50.898;6.054;2022-08-05T06:04:56;23.83;;;15.73;;
59824;SDS011;45703;50.898;6.054;2022-08-05T06:07:21;24.42;;;15.70;;
59824;SDS011;45703;50.898;6.054;2022-08-05T06:09:46;25.27;;;17.38;;
59824;SDS011;45703;50.898;6.054;2022-08-05T06:12:12;26.83;;;17.67;;
59824;SDS011;45703;50.898;6.054;2022-08-05T06:14:37;26.00;;;17.77;;
59824;SDS011;45703;50.898;6.054;2022-08-05T06:17:03;24.40;;;16.08;;
59824;SDS011;45703;50.898;6.054;2022-08-05T06:19:28;22.02;;;14.73;;
59824;SDS011;45703;50.898;6.054;2022-08-05T06:21:53;26.15;;;17.08;;
59824;SDS011;45703;50.898;6.054;2022-08-05T06:24:19;25.60;;;16.65;;
59824;SDS011;45703;50.898;6.054;2022-08-05T06:26:44;23.42;;;16.25;;
59824;SDS011;45703;50.898;6.054;2022-08-05T06:29:10;25.20;;;15.45;;
59824;SDS011;45703;50.898;6.054;2022-08-05T06:31:36;25.17;;;14.80;;
59824;SDS011;45703;50.898;6.054;2022-08-05T06:34:02;25.75;;;17.00;;
59824;SDS011;45703;50.898;6.054;2022-08-05T06:36:27;24.10;;;15.20;;
59824;SDS011;45703;50.898;6.054;2022-08-05T06:38:53;25.48;;;15.95;;
59824;SDS011;45703;50.898;6.054;2022-08-05T06:41:19;24.38;;;14.82;;
59824;SDS011;45703;50.898;6.054;2022-08-05T06:43:45;19.92;;;13.68;;
59824;SDS011;45703;50.898;6.054;2022-08-05T06:46:11;20.92;;;13.15;;
59824;SDS011;45703;50.898;6.054;2022-08-05T06:48:36;20.92;;;14.25;;
59824;SDS011;45703;50.898;6.054;2022-08-05T06:51:02;19.33;;;13.55;;
59824;SDS011;45703;50.898;6.054;2022-08-05T06:53:28;16.98;;;12.35;;
59824;SDS011;45703;50.898;6.054;2022-08-05T06:55:54;16.33;;;11.95;;
59824;SDS011;45703;50.898;6.054;2022-08-05T06:58:21;15.05;;;10.70;;
59824;SDS011;45703;50.898;6.054;2022-08-05T07:00:46;15.50;;;10.75;;
59824;SDS011;45703;50.898;6.054;2022-08-05T07:03:11;17.30;;;11.50;;
59824;SDS011;45703;50.898;6.054;2022-08-05T07:05:37;17.05;;;9.95;;
59824;SDS011;45703;50.898;6.054;2022-08-05T07:08:02;13.27;;;8.70;;
59824;SDS011;45703;50.898;6.054;2022-08-05T07:10:28;14.45;;;9.30;;
59824;SDS011;45703;50.898;6.054;2022-08-05T07:12:53;14.20;;;8.70;;
59824;SDS011;45703;50.898;6.054;2022-08-05T07:15:37;11.85;;;7.80;;
59824;SDS011;45703;50.898;6.054;2022-08-05T07:18:21;13.05;;;7.78;;
59824;SDS011;45703;50.898;6.054;2022-08-05T07:20:46;12.32;;;7.57;;
59824;SDS011;45703;50.898;6.054;2022-08-05T07:23:11;13.18;;;7.55;;
59824;SDS011;45703;50.898;6.054;2022-08-05T07:25:37;12.40;;;7.22;;
59824;SDS011;45703;50.898;6.054;2022-08-05T07:28:02;9.95;;;6.90;;
59824;SDS011;45703;50.898;6.054;2022-08-05T07:30:32;10.52;;;6.50;;
59824;SDS011;45703;50.898;6.054;2022-08-05T07:32:59;10.27;;;5.90;;
59824;SDS011;45703;50.898;6.054;2022-08-05T07:35:27;10.30;;;5.70;;
59824;SDS011;45703;50.898;6.054;2022-08-05T07:37:53;11.38;;;5.57;;
59824;SDS011;45703;50.898;6.054;2022-08-05T07:40:18;8.85;;;4.65;;
59824;SDS011;45703;50.898;6.054;2022-08-05T07:42:45;8.50;;;4.30;;
59824;SDS011;45703;50.898;6.054;2022-08-05T07:45:11;9.95;;;4.65;;
59824;SDS011;45703;50.898;6.054;2022-08-05T07:47:37;9.82;;;4.72;;
59824;SDS011;45703;50.898;6.054;2022-08-05T07:50:02;9.80;;;4.63;;
59824;SDS011;45703;50.898;6.054;2022-08-05T07:52:28;10.02;;;4.55;;
59824;SDS011;45703;50.898;6.054;2022-08-05T07:54:53;10.32;;;4.70;;
59824;SDS011;45703;50.898;6.054;2022-08-05T07:57:18;9.55;;;4.80;;
59824;SDS011;45703;50.898;6.054;2022-08-05T07:59:44;11.45;;;4.97;;
59824;SDS011;45703;50.898;6.054;2022-08-05T08:02:09;9.35;;;4.72;;
59824;SDS011;45703;50.898;6.054;2022-08-05T08:04:35;11.15;;;4.97;;
59824;SDS011;45703;50.898;6.054;2022-08-05T08:07:00;10.45;;;4.88;;
59824;SDS011;45703;50.898;6.054;2022-08-05T08:09:26;9.85;;;4.80;;
59824;SDS011;45703;50.898;6.054;2022-08-05T08:11:51;9.57;;;5.10;;
59824;SDS011;45703;50.898;6.054;2022-08-05T08:14:17;8.57;;;4.25;;
59824;SDS011;45703;50.898;6.054;2022-08-05T08:16:42;8.82;;;4.50;;
59824;SDS011;45703;50.898;6.054;2022-08-05T08:19:08;9.57;;;4.43;;
59824;SDS011;45703;50.898;6.054;2022-08-05T08:21:33;8.43;;;4.57;;
59824;SDS011;45703;50.898;6.054;2022-08-05T08:23:59;10.00;;;5.05;;
59824;SDS011;45703;50.898;6.054;2022-08-05T08:26:24;8.38;;;4.43;;
59824;SDS011;45703;50.898;6.054;2022-08-05T08:28:50;9.32;;;4.10;;
59824;SDS011;45703;50.898;6.054;2022-08-05T08:31:15;8.88;;;4.43;;
59824;SDS011;45703;50.898;6.054;2022-08-05T08:33:42;9.48;;;4.22;;
59824;SDS011;45703;50.898;6.054;2022-08-05T08:36:07;8.57;;;4.28;;
59824;SDS011;45703;50.898;6.054;2022-08-05T08:38:33;10.38;;;4.38;;
59824;SDS011;45703;50.898;6.054;2022-08-05T08:40:58;8.20;;;3.80;;
59824;SDS011;45703;50.898;6.054;2022-08-05T08:43:28;8.02;;;4.18;;
59824;SDS011;45703;50.898;6.054;2022-08-05T08:45:55;9.95;;;4.63;;
59824;SDS011;45703;50.898;6.054;2022-08-05T08:48:21;8.85;;;4.15;;
59824;SDS011;45703;50.898;6.054;2022-08-05T08:50:48;8.90;;;4.05;;
59824;SDS011;45703;50.898;6.054;2022-08-05T08:53:15;8.77;;;4.15;;
59824;SDS011;45703;50.898;6.054;2022-08-05T08:55:41;7.40;;;3.60;;
59824;SDS011;45703;50.898;6.054;2022-08-05T08:58:09;7.47;;;3.50;;
59824;SDS011;45703;50.898;6.054;2022-08-05T09:00:35;8.80;;;4.20;;
59824;SDS011;45703;50.898;6.054;2022-08-05T09:03:00;8.23;;;4.18;;
59824;SDS011;45703;50.898;6.054;2022-08-05T09:05:29;9.90;;;4.65;;
59824;SDS011;45703;50.898;6.054;2022-08-05T09:07:54;8.02;;;4.40;;
59824;SDS011;45703;50.898;6.054;2022-08-05T09:10:20;8.50;;;4.00;;
59824;SDS011;45703;50.898;6.054;2022-08-05T09:12:46;8.50;;;4.15;;
59824;SDS011;45703;50.898;6.054;2022-08-05T09:15:11;9.20;;;4.43;;
59824;SDS011;45703;50.898;6.054;2022-08-05T09:17:38;10.10;;;3.90;;
59824;SDS011;45703;50.898;6.054;2022-08-05T09:20:04;9.27;;;4.35;;
59824;SDS011;45703;50.898;6.054;2022-08-05T09:23:01;9.82;;;4.20;;
59824;SDS011;45703;50.898;6.054;2022-08-05T09:25:27;10.40;;;4.38;;
59824;SDS011;45703;50.898;6.054;2022-08-05T09:27:53;8.98;;;4.13;;
59824;SDS011;45703;50.898;6.054;2022-08-05T09:30:19;12.27;;;4.60;;
59824;SDS011;45703;50.898;6.054;2022-08-05T09:32:44;9.18;;;4.25;;
59824;SDS011;45703;50.898;6.054;2022-08-05T09:35:11;8.45;;;4.40;;
59824;SDS011;45703;50.898;6.054;2022-08-05T09:37:39;9.65;;;4.53;;
59824;SDS011;45703;50.898;6.054;2022-08-05T09:43:00;9.80;;;5.60;;
59824;SDS011;45703;50.898;6.054;2022-08-05T09:45:39;11.02;;;5.15;;
59824;SDS011;45703;50.898;6.054;2022-08-05T09:48:25;10.77;;;5.75;;
59824;SDS011;45703;50.898;6.054;2022-08-05T09:51:02;9.75;;;5.45;;
59824;SDS011;45703;50.898;6.054;2022-08-05T09:53:30;9.82;;;5.38;;
59824;SDS011;45703;50.898;6.054;2022-08-05T09:56:11;11.15;;;5.80;;
59824;SDS011;45703;50.898;6.054;2022-08-05T09:58:37;8.85;;;5.05;;
59824;SDS011;45703;50.898;6.054;2022-08-05T10:01:03;11.35;;;6.18;;
59824;SDS011;45703;50.898;6.054;2022-08-05T10:03:30;11.70;;;6.45;;
59824;SDS011;45703;50.898;6.054;2022-08-05T10:06:04;12.00;;;6.38;;
59824;SDS011;45703;50.898;6.054;2022-08-05T10:08:31;10.98;;;6.20;;
59824;SDS011;45703;50.898;6.054;2022-08-05T10:10:57;11.57;;;6.00;;
59824;SDS011;45703;50.898;6.054;2022-08-05T10:13:30;12.98;;;5.85;;
59824;SDS011;45703;50.898;6.054;2022-08-05T10:15:58;12.93;;;6.55;;
59824;SDS011;45703;50.898;6.054;2022-08-05T10:18:25;12.00;;;6.00;;
59824;SDS011;45703;50.898;6.054;2022-08-05T10:25:57;11.00;;;5.55;;
59824;SDS011;45703;50.898;6.054;2022-08-05T10:28:26;10.48;;;5.80;;
59824;SDS011;45703;50.898;6.054;2022-08-05T10:30:52;8.77;;;4.50;;
59824;SDS011;45703;50.898;6.054;2022-08-05T10:33:18;8.27;;;4.97;;
59824;SDS011;45703;50.898;6.054;2022-08-05T10:35:51;9.63;;;4.97;;
59824;SDS011;45703;50.898;6.054;2022-08-05T10:38:18;11.05;;;5.18;;
59824;SDS011;45703;50.898;6.054;2022-08-05T10:40:49;9.88;;;5.22;;
59824;SDS011;45703;50.898;6.054;2022-08-05T10:43:38;12.05;;;6.10;;
59824;SDS011;45703;50.898;6.054;2022-08-05T10:46:13;10.75;;;5.95;;
59824;SDS011;45703;50.898;6.054;2022-08-05T10:48:41;10.68;;;5.65;;
59824;SDS011;45703;50.898;6.054;2022-08-05T10:51:16;10.00;;;5.32;;
59824;SDS011;45703;50.898;6.054;2022-08-05T10:56:20;11.98;;;5.88;;
59824;SDS011;45703;50.898;6.054;2022-08-05T11:01:29;11.63;;;5.10;;
59824;SDS011;45703;50.898;6.054;2022-08-05T11:04:07;8.60;;;5.15;;
59824;SDS011;45703;50.898;6.054;2022-08-05T11:15:06;8.10;;;4.13;;
59824;SDS011;45703;50.898;6.054;2022-08-05T11:17:53;9.13;;;4.28;;
59824;SDS011;45703;50.898;6.054;2022-08-05T11:20:41;8.77;;;4.15;;
59824;SDS011;45703;50.898;6.054;2022-08-05T11:26:08;8.23;;;4.47;;
59824;SDS011;45703;50.898;6.054;2022-08-05T11:33:31;10.98;;;5.05;;
59824;SDS011;45703;50.898;6.054;2022-08-05T11:35:57;9.23;;;4.70;;
59824;SDS011;45703;50.898;6.054;2022-08-05T11:41:07;9.52;;;4.78;;
59824;SDS011;45703;50.898;6.054;2022-08-05T11:49:05;8.95;;;5.00;;
59824;SDS011;45703;50.898;6.054;2022-08-05T11:51:32;9.18;;;5.22;;
59824;SDS011;45703;50.898;6.054;2022-08-05T11:53:58;9.20;;;4.32;;
59824;SDS011;45703;50.898;6.054;2022-08-05T11:56:45;11.70;;;6.22;;
59824;SDS011;45703;50.898;6.054;2022-08-05T11:59:19;8.70;;;4.85;;
59824;SDS011;45703;50.898;6.054;2022-08-05T12:04:37;9.15;;;5.28;;
59824;SDS011;45703;50.898;6.054;2022-08-05T12:07:07;9.45;;;5.80;;
59824;SDS011;45703;50.898;6.054;2022-08-05T12:09:37;9.32;;;5.47;;
59824;SDS011;45703;50.898;6.054;2022-08-05T12:14:36;9.27;;;5.32;;
